Time;durP1;ratioP1;P1;durP2;ratioP2;P2;SDS_P1;SDS_P2;PMS_P1;PMS_P2;Temp;Humidity;BMP_temperature;BMP_pressure;BME280_temperature;BME280_humidity;BME280_pressure;Samples;Min_cycle;Max_cycle;Signal;HPM_P1;HPM_P2
2021/09/16 00:01:15;;;;;;;5.78;3.13;;;16.90;99.90;;;;;;5033024;28;20076;-74
2021/09/16 00:03:40;;;;;;;4.88;3.42;;;17.00;99.90;;;;;;5032831;28;20033;-73
2021/09/16 00:06:06;;;;;;;3.25;2.95;;;17.00;99.90;;;;;;5032555;28;20036;-73
2021/09/16 00:08:32;;;;;;;4.97;2.30;;;17.00;99.90;;;;;;5032741;28;20519;-73
2021/09/16 00:10:57;;;;;;;4.68;2.30;;;17.00;99.90;;;;;;5033077;28;20578;-73
2021/09/16 00:13:23;;;;;;;3.90;2.67;;;16.90;99.90;;;;;;5032033;28;20044;-74
2021/09/16 00:15:49;;;;;;;5.95;2.25;;;16.90;99.90;;;;;;5014279;28;20017;-73
2021/09/16 00:18:14;;;;;;;3.10;2.03;;;16.90;99.90;;;;;;5032534;28;20030;-72
2021/09/16 00:20:40;;;;;;;6.25;2.33;;;16.90;99.90;;;;;;5032577;28;20053;-72
2021/09/16 00:23:06;;;;;;;1.83;1.73;;;16.90;99.90;;;;;;5032056;28;20029;-72
2021/09/16 00:25:32;;;;;;;3.50;1.88;;;16.90;99.90;;;;;;5031717;28;20017;-72
2021/09/16 00:27:57;;;;;;;2.55;1.95;;;16.90;99.90;;;;;;5032332;28;20037;-72
2021/09/16 00:30:23;;;;;;;2.47;1.77;;;16.90;99.90;;;;;;5032419;28;20523;-72
2021/09/16 00:32:49;;;;;;;4.07;1.70;;;16.80;99.90;;;;;;5033074;28;20025;-73
2021/09/16 00:35:14;;;;;;;4.68;2.00;;;16.80;99.90;;;;;;5033361;28;20030;-72
2021/09/16 00:37:40;;;;;;;3.45;1.85;;;16.90;99.90;;;;;;5034119;28;20050;-71
2021/09/16 00:40:07;;;;;;;3.80;1.92;;;16.80;99.90;;;;;;5055443;28;20073;-74
2021/09/16 00:42:33;;;;;;;5.97;2.10;;;16.90;99.90;;;;;;5038706;28;20119;-73
2021/09/16 00:44:59;;;;;;;4.70;1.88;;;17.00;99.90;;;;;;5031129;28;20105;-73
2021/09/16 00:47:25;;;;;;;1.92;1.83;;;17.10;99.90;;;;;;5031893;28;20475;-73
2021/09/16 00:49:50;;;;;;;5.15;1.77;;;17.00;99.90;;;;;;5031900;28;20049;-73
2021/09/16 00:52:17;;;;;;;4.43;2.28;;;17.00;99.90;;;;;;5031390;28;20025;-73
2021/09/16 00:54:46;;;;;;;3.47;1.88;;;16.90;99.90;;;;;;5030976;28;20025;-73
2021/09/16 00:57:14;;;;;;;2.88;1.63;;;16.90;99.90;;;;;;5031820;28;20017;-73
2021/09/16 00:59:40;;;;;;;3.30;1.50;;;17.00;99.90;;;;;;5031456;28;20026;-72
2021/09/16 01:02:06;;;;;;;4.00;1.40;;;17.00;99.90;;;;;;5031664;28;20044;-72
2021/09/16 01:04:32;;;;;;;4.32;1.67;;;16.90;99.90;;;;;;5012901;28;20479;-73
2021/09/16 01:06:58;;;;;;;6.72;1.85;;;17.00;99.90;;;;;;5031453;28;20029;-72
2021/09/16 01:09:25;;;;;;;2.15;1.70;;;16.90;99.90;;;;;;5013559;28;20473;-72
2021/09/16 01:11:51;;;;;;;6.10;2.05;;;16.90;99.90;;;;;;5013509;28;20026;-73
2021/09/16 01:14:24;;;;;;;2.30;1.30;;;16.80;99.90;;;;;;5030277;28;20495;-73
2021/09/16 01:16:51;;;;;;;1.90;1.80;;;16.80;99.90;;;;;;5031388;28;20039;-72
2021/09/16 01:19:18;;;;;;;2.28;1.80;;;16.70;99.90;;;;;;5031253;28;20029;-72
2021/09/16 01:21:44;;;;;;;3.08;1.85;;;16.80;99.90;;;;;;5031374;28;20684;-73
2021/09/16 01:24:09;;;;;;;5.57;2.10;;;16.90;99.90;;;;;;5031195;28;20082;-73
2021/09/16 01:26:35;;;;;;;6.07;2.25;;;17.00;99.90;;;;;;5030678;28;20029;-73
2021/09/16 01:29:01;;;;;;;1.98;1.85;;;17.20;99.90;;;;;;5030987;28;20032;-73
2021/09/16 01:31:37;;;;;;;2.75;1.80;;;17.20;99.90;;;;;;5031280;28;20057;-72
2021/09/16 01:34:08;;;;;;;3.65;1.70;;;17.10;99.90;;;;;;5013584;28;20033;-73
2021/09/16 01:36:35;;;;;;;3.10;1.67;;;17.10;99.90;;;;;;5030302;28;20061;-72
2021/09/16 01:39:04;;;;;;;2.40;1.58;;;17.00;99.90;;;;;;5031152;28;20162;-72
2021/09/16 01:41:30;;;;;;;6.32;1.95;;;17.00;99.90;;;;;;5031283;28;20107;-72
2021/09/16 01:43:55;;;;;;;2.10;1.90;;;16.90;99.90;;;;;;5030831;28;20033;-73
2021/09/16 01:46:21;;;;;;;7.60;1.90;;;16.90;99.90;;;;;;5030422;28;20413;-72
2021/09/16 01:48:47;;;;;;;5.88;1.85;;;17.00;99.90;;;;;;5031151;28;20757;-71
2021/09/16 01:51:13;;;;;;;2.90;1.88;;;17.10;99.90;;;;;;5013487;28;20625;-71
2021/09/16 01:53:38;;;;;;;2.70;2.03;;;17.20;99.90;;;;;;5030903;28;20030;-71
2021/09/16 01:56:04;;;;;;;4.10;1.70;;;17.00;99.90;;;;;;5030474;28;20022;-72
2021/09/16 01:58:30;;;;;;;5.15;1.63;;;16.80;99.90;;;;;;5034341;28;20387;-71
2021/09/16 02:00:56;;;;;;;2.15;1.95;;;16.70;99.90;;;;;;5034625;28;20068;-73
2021/09/16 02:03:22;;;;;;;7.40;1.95;;;16.80;99.90;;;;;;5034668;28;20030;-72
2021/09/16 02:05:48;;;;;;;3.78;1.92;;;16.90;99.90;;;;;;5016256;28;20030;-72
2021/09/16 02:08:13;;;;;;;4.53;1.77;;;17.00;99.90;;;;;;5034868;28;20387;-72
2021/09/16 02:10:39;;;;;;;7.60;2.28;;;17.00;99.90;;;;;;5034845;28;20029;-72
2021/09/16 02:13:05;;;;;;;6.15;2.08;;;17.10;99.90;;;;;;5034232;28;20522;-72
2021/09/16 02:15:31;;;;;;;3.67;1.73;;;17.10;99.90;;;;;;5034162;28;20026;-72
2021/09/16 02:17:56;;;;;;;11.30;2.10;;;17.10;99.90;;;;;;5034839;28;20021;-72
2021/09/16 02:20:22;;;;;;;2.53;1.55;;;17.10;99.90;;;;;;5034885;28;20049;-71
2021/09/16 02:22:48;;;;;;;2.10;1.90;;;17.20;99.90;;;;;;5034642;28;20055;-71
2021/09/16 02:25:14;;;;;;;8.13;2.92;;;17.20;99.90;;;;;;5034029;28;20029;-72
2021/09/16 02:27:39;;;;;;;2.50;2.22;;;17.20;99.90;;;;;;5034639;28;20029;-72
2021/09/16 02:30:06;;;;;;;2.80;1.90;;;17.30;99.90;;;;;;5033997;28;20029;-71
2021/09/16 02:32:32;;;;;;;3.88;2.10;;;17.40;99.90;;;;;;5034455;28;20022;-72
2021/09/16 02:34:58;;;;;;;1.90;1.60;;;17.40;99.90;;;;;;5033592;28;20105;-72
2021/09/16 02:37:23;;;;;;;2.85;1.77;;;17.40;99.90;;;;;;5034274;28;20108;-72
2021/09/16 02:39:49;;;;;;;1.80;1.70;;;17.10;99.90;;;;;;5034218;28;20071;-72
2021/09/16 02:42:16;;;;;;;4.15;1.55;;;17.00;99.90;;;;;;5034199;28;20025;-72
2021/09/16 02:44:42;;;;;;;7.32;1.77;;;16.90;99.90;;;;;;5033018;28;20026;-71
2021/09/16 02:47:07;;;;;;;2.63;1.80;;;16.90;99.90;;;;;;5033916;28;20128;-71
2021/09/16 02:49:33;;;;;;;2.15;1.95;;;16.90;99.90;;;;;;5033946;28;20073;-72
2021/09/16 02:51:59;;;;;;;2.55;1.73;;;16.90;99.90;;;;;;5034304;28;20022;-71
2021/09/16 02:54:24;;;;;;;4.03;2.17;;;17.00;99.90;;;;;;5034231;28;20383;-72
2021/09/16 02:56:50;;;;;;;3.10;2.00;;;17.10;99.90;;;;;;5034954;28;20525;-71
2021/09/16 02:59:16;;;;;;;4.63;1.75;;;17.10;99.90;;;;;;5033882;28;20014;-71
2021/09/16 03:01:42;;;;;;;6.80;1.90;;;17.00;99.90;;;;;;5034002;28;20033;-71
2021/09/16 03:04:08;;;;;;;5.65;1.90;;;16.90;99.90;;;;;;5034263;28;20029;-71
2021/09/16 03:06:33;;;;;;;7.43;1.80;;;16.80;99.90;;;;;;5033022;28;20030;-72
2021/09/16 03:08:59;;;;;;;3.70;1.80;;;16.70;99.90;;;;;;5033631;28;20521;-72
2021/09/16 03:11:25;;;;;;;3.30;2.15;;;16.80;99.90;;;;;;5032849;28;20025;-72
2021/09/16 03:13:50;;;;;;;4.18;2.08;;;16.80;99.90;;;;;;5015459;28;20044;-73
2021/09/16 03:16:16;;;;;;;5.32;2.22;;;17.00;99.90;;;;;;5033363;28;20022;-73
2021/09/16 03:18:42;;;;;;;7.88;2.28;;;17.00;99.90;;;;;;5033919;28;20053;-72
2021/09/16 03:21:07;;;;;;;3.70;2.25;;;17.10;99.90;;;;;;5033544;28;20021;-72
2021/09/16 03:23:33;;;;;;;4.03;2.40;;;17.20;99.90;;;;;;5033202;28;20078;-72
2021/09/16 03:25:59;;;;;;;4.85;2.63;;;17.20;99.90;;;;;;5032790;28;20115;-72
2021/09/16 03:28:25;;;;;;;5.07;2.70;;;17.30;99.90;;;;;;5032731;28;20175;-73
2021/09/16 03:30:50;;;;;;;3.33;2.40;;;17.30;99.90;;;;;;5015510;28;20032;-73
2021/09/16 03:33:16;;;;;;;5.50;2.63;;;17.20;99.90;;;;;;5033104;28;20030;-73
2021/09/16 03:35:42;;;;;;;4.90;2.20;;;17.20;99.90;;;;;;5032462;28;20079;-73
2021/09/16 03:38:07;;;;;;;4.97;2.00;;;17.10;99.90;;;;;;5033272;28;20109;-72
2021/09/16 03:40:33;;;;;;;3.25;2.50;;;17.10;99.90;;;;;;5033104;28;20029;-73
2021/09/16 03:42:59;;;;;;;3.38;2.38;;;17.20;99.90;;;;;;5032727;28;20036;-73
2021/09/16 03:45:24;;;;;;;2.42;2.22;;;17.20;99.90;;;;;;5014258;28;20022;-72
2021/09/16 03:47:50;;;;;;;4.45;1.80;;;17.20;99.90;;;;;;5033221;28;20056;-72
2021/09/16 03:50:15;;;;;;;3.03;1.90;;;17.20;99.90;;;;;;5032944;28;20057;-72
2021/09/16 03:52:41;;;;;;;3.80;2.78;;;17.20;99.90;;;;;;5032884;28;20483;-71
2021/09/16 03:55:08;;;;;;;6.22;2.53;;;17.20;99.90;;;;;;5032320;28;20108;-73
2021/09/16 03:57:33;;;;;;;4.40;2.63;;;17.30;99.90;;;;;;5015045;28;20418;-73
2021/09/16 03:59:59;;;;;;;8.50;2.75;;;17.30;99.90;;;;;;5032499;28;20124;-73
2021/09/16 04:02:25;;;;;;;2.78;2.10;;;17.30;99.90;;;;;;5013836;28;20545;-73
2021/09/16 04:04:51;;;;;;;9.98;2.55;;;17.30;99.90;;;;;;5014109;28;20033;-72
2021/09/16 04:07:17;;;;;;;3.05;2.63;;;17.20;99.90;;;;;;5032756;28;20029;-73
2021/09/16 04:09:42;;;;;;;4.72;2.47;;;17.30;99.90;;;;;;5032471;28;20026;-72
2021/09/16 04:12:08;;;;;;;6.07;2.35;;;17.20;99.90;;;;;;5032157;28;20487;-73
2021/09/16 04:14:34;;;;;;;4.32;2.20;;;17.20;99.90;;;;;;5031566;28;20029;-72
2021/09/16 04:16:59;;;;;;;2.30;2.00;;;17.30;99.90;;;;;;5032787;28;20100;-73
2021/09/16 04:19:25;;;;;;;6.05;2.40;;;17.30;99.90;;;;;;5032213;28;20033;-72
2021/09/16 04:21:51;;;;;;;4.50;2.40;;;17.20;99.90;;;;;;5032608;28;20100;-72
2021/09/16 04:24:17;;;;;;;5.75;2.22;;;17.20;99.90;;;;;;5027342;28;20112;-78
2021/09/16 04:26:46;;;;;;;5.40;2.28;;;17.20;99.90;;;;;;5029307;28;20057;-79
2021/09/16 04:29:12;;;;;;;7.95;2.40;;;17.20;99.90;;;;;;5032876;28;20029;-79
2021/09/16 04:34:10;;;;;;;4.50;2.30;;;17.20;99.90;;;;;;5010637;28;20413;-77
2021/09/16 04:36:36;;;;;;;3.92;2.20;;;17.20;99.90;;;;;;5007695;28;20021;-77
2021/09/16 04:39:03;;;;;;;3.38;2.20;;;17.20;99.90;;;;;;5003492;28;20022;-77
2021/09/16 04:41:29;;;;;;;4.35;2.30;;;17.20;99.90;;;;;;4991938;28;20412;-77
2021/09/16 04:43:54;;;;;;;5.53;2.33;;;17.20;99.90;;;;;;5010785;28;20030;-77
2021/09/16 04:46:20;;;;;;;3.13;1.90;;;17.20;99.90;;;;;;5011392;28;20064;-77
2021/09/16 04:48:45;;;;;;;5.07;2.40;;;17.10;99.90;;;;;;5011588;28;20566;-78
2021/09/16 04:51:11;;;;;;;3.38;2.03;;;17.10;99.90;;;;;;5011881;28;20415;-77
2021/09/16 04:53:37;;;;;;;3.90;2.35;;;17.10;99.90;;;;;;5011091;28;20120;-78
2021/09/16 04:56:03;;;;;;;6.57;2.45;;;17.00;99.90;;;;;;5029128;28;20025;-78
2021/09/16 04:58:28;;;;;;;3.00;2.70;;;17.00;99.90;;;;;;5029673;28;20029;-77
2021/09/16 05:00:54;;;;;;;5.45;2.63;;;17.00;99.90;;;;;;5024161;28;20026;-77
2021/09/16 05:03:19;;;;;;;3.85;2.50;;;17.00;99.90;;;;;;5023560;28;20024;-77
2021/09/16 05:05:45;;;;;;;3.67;2.47;;;17.10;99.90;;;;;;5030039;28;20100;-77
2021/09/16 05:08:13;;;;;;;4.57;2.00;;;17.20;99.90;;;;;;5031049;28;20017;-77
2021/09/16 05:10:39;;;;;;;7.32;2.63;;;17.20;99.90;;;;;;5031331;28;20022;-78
2021/09/16 05:13:04;;;;;;;4.93;2.70;;;17.30;99.90;;;;;;5031260;28;20575;-78
2021/09/16 05:15:31;;;;;;;7.95;2.78;;;17.30;99.90;;;;;;5029888;28;20033;-78
2021/09/16 05:17:56;;;;;;;5.75;3.08;;;17.30;99.90;;;;;;5030722;28;20542;-77
2021/09/16 05:20:22;;;;;;;6.07;2.90;;;17.30;99.90;;;;;;5012858;28;20101;-77
2021/09/16 05:22:48;;;;;;;4.15;2.50;;;17.20;99.90;;;;;;5011318;28;20018;-78
2021/09/16 05:25:13;;;;;;;5.40;3.00;;;17.10;99.90;;;;;;5010225;28;20160;-78
2021/09/16 05:27:39;;;;;;;4.43;2.75;;;17.20;99.90;;;;;;5010836;28;20058;-77
2021/09/16 05:30:05;;;;;;;9.88;2.80;;;17.10;99.90;;;;;;5010935;28;20037;-77
2021/09/16 05:32:31;;;;;;;2.22;2.10;;;17.20;99.90;;;;;;5018502;28;20029;-78
2021/09/16 05:34:56;;;;;;;2.42;2.03;;;17.20;99.90;;;;;;5008675;28;20026;-78
2021/09/16 05:37:23;;;;;;;4.50;2.38;;;17.30;99.90;;;;;;5015330;28;20040;-78
2021/09/16 05:39:49;;;;;;;4.15;2.83;;;17.30;99.90;;;;;;5014996;28;20030;-78
2021/09/16 05:42:14;;;;;;;4.97;2.28;;;17.40;99.90;;;;;;5016686;28;20029;-78
2021/09/16 05:44:40;;;;;;;4.00;2.08;;;17.60;99.90;;;;;;5034482;28;20395;-79
2021/09/16 05:47:06;;;;;;;3.30;2.08;;;17.50;99.90;;;;;;5035179;28;20032;-78
2021/09/16 05:49:32;;;;;;;2.50;2.22;;;17.40;99.90;;;;;;5035092;28;20507;-78
2021/09/16 05:51:57;;;;;;;4.05;2.25;;;17.60;99.90;;;;;;5033426;28;20026;-78
2021/09/16 05:54:23;;;;;;;2.35;2.15;;;17.50;99.90;;;;;;5034455;28;20026;-78
2021/09/16 05:56:49;;;;;;;5.35;2.97;;;17.60;99.90;;;;;;5034922;28;20480;-78
2021/09/16 05:59:15;;;;;;;4.88;3.03;;;17.70;99.90;;;;;;5017802;28;20497;-78
2021/09/16 06:01:41;;;;;;;3.75;2.65;;;17.70;99.90;;;;;;5018701;28;20450;-78
2021/09/16 06:04:06;;;;;;;5.78;2.90;;;17.70;99.90;;;;;;5030207;28;20104;-78
2021/09/16 06:06:32;;;;;;;3.53;2.45;;;17.60;99.90;;;;;;5031792;28;20030;-78
2021/09/16 06:08:58;;;;;;;4.20;2.72;;;17.60;99.90;;;;;;5034554;28;20037;-78
2021/09/16 06:11:25;;;;;;;5.07;2.58;;;17.70;99.90;;;;;;5034628;28;20052;-78
2021/09/16 06:13:51;;;;;;;5.05;2.53;;;17.60;99.90;;;;;;5032013;28;20419;-78
2021/09/16 06:16:17;;;;;;;3.25;2.30;;;17.60;99.90;;;;;;5033977;28;20480;-78
2021/09/16 06:18:42;;;;;;;7.18;2.55;;;17.60;99.90;;;;;;5029750;28;20052;-78
2021/09/16 06:21:08;;;;;;;6.35;2.90;;;17.60;99.90;;;;;;5022264;28;20475;-78
2021/09/16 06:23:34;;;;;;;5.88;2.70;;;17.60;99.90;;;;;;5034223;28;20033;-78
2021/09/16 06:25:59;;;;;;;4.85;2.72;;;17.70;99.90;;;;;;5033685;28;20041;-78
2021/09/16 06:28:25;;;;;;;6.07;2.65;;;17.90;99.90;;;;;;5031942;28;20040;-77
2021/09/16 06:30:50;;;;;;;4.75;2.60;;;17.90;99.90;;;;;;5034435;28;20114;-78
2021/09/16 06:33:16;;;;;;;3.08;2.33;;;18.00;99.90;;;;;;5030639;28;20071;-78
2021/09/16 06:35:42;;;;;;;7.53;2.20;;;18.10;99.90;;;;;;5049121;28;20414;-78
2021/09/16 06:38:07;;;;;;;2.42;2.22;;;18.30;99.90;;;;;;5033633;28;20021;-78
2021/09/16 06:40:33;;;;;;;3.88;2.53;;;18.40;99.90;;;;;;5033085;28;20032;-79
2021/09/16 06:42:59;;;;;;;5.72;2.70;;;18.40;99.90;;;;;;5033879;28;20060;-79
2021/09/16 06:45:25;;;;;;;2.13;1.92;;;18.60;99.90;;;;;;5033536;28;20095;-77
2021/09/16 06:47:50;;;;;;;8.13;2.90;;;18.90;99.90;;;;;;4998722;28;20030;-79
2021/09/16 06:50:16;;;;;;;2.47;1.77;;;19.00;99.90;;;;;;4994660;28;20464;-79
2021/09/16 06:52:42;;;;;;;2.38;1.98;;;19.10;99.90;;;;;;4994171;28;20178;-78
2021/09/16 06:55:08;;;;;;;5.35;2.47;;;19.30;99.90;;;;;;4993723;28;20038;-78
2021/09/16 06:57:34;;;;;;;4.75;2.50;;;19.30;99.90;;;;;;4994886;28;20069;-79
2021/09/16 06:59:59;;;;;;;7.15;1.88;;;19.50;99.90;;;;;;4994660;28;20407;-78
2021/09/16 07:02:25;;;;;;;2.92;1.75;;;19.30;99.90;;;;;;5003783;28;20025;-79
2021/09/16 07:04:51;;;;;;;3.20;2.15;;;19.10;99.90;;;;;;5032882;28;20021;-78
2021/09/16 07:07:17;;;;;;;2.50;1.70;;;19.20;99.90;;;;;;5034642;28;20053;-78
2021/09/16 07:09:43;;;;;;;5.07;2.33;;;19.30;99.90;;;;;;5033894;28;20099;-78
2021/09/16 07:12:09;;;;;;;8.05;2.08;;;19.20;99.90;;;;;;5033305;28;20028;-78
2021/09/16 07:14:35;;;;;;;3.00;1.88;;;19.40;99.90;;;;;;5033116;28;20139;-80
2021/09/16 07:17:01;;;;;;;3.80;2.00;;;19.50;99.90;;;;;;5033638;28;20030;-78
2021/09/16 07:19:27;;;;;;;3.90;2.00;;;19.60;99.90;;;;;;5022655;28;20030;-78
2021/09/16 07:21:54;;;;;;;4.40;1.90;;;19.50;99.90;;;;;;5013171;28;20080;-78
2021/09/16 07:24:22;;;;;;;2.08;1.92;;;19.40;99.90;;;;;;5012722;28;20018;-76
2021/09/16 07:26:51;;;;;;;8.32;1.90;;;19.50;99.90;;;;;;5013204;28;20104;-76
2021/09/16 07:29:25;;;;;;;3.22;1.90;;;19.70;99.90;;;;;;5013428;28;20149;-77
2021/09/16 07:31:53;;;;;;;5.50;2.05;;;19.70;99.90;;;;;;5013683;28;20026;-77
2021/09/16 07:34:22;;;;;;;2.25;1.98;;;20.10;99.90;;;;;;5031715;28;20036;-77
2021/09/16 07:36:48;;;;;;;6.57;2.55;;;20.10;99.90;;;;;;5032850;28;20026;-76
2021/09/16 07:39:19;;;;;;;3.97;2.10;;;19.90;99.90;;;;;;5032891;28;20403;-76
2021/09/16 07:41:44;;;;;;;2.78;1.98;;;19.80;99.90;;;;;;5031385;28;20373;-76
2021/09/16 07:44:10;;;;;;;3.22;2.20;;;20.10;99.90;;;;;;5032869;28;20032;-77
2021/09/16 07:46:36;;;;;;;2.83;2.20;;;20.20;99.90;;;;;;5031843;28;20438;-76
2021/09/16 07:49:02;;;;;;;4.82;2.20;;;20.30;99.90;;;;;;5032212;28;20033;-77
2021/09/16 07:51:27;;;;;;;2.80;2.33;;;20.60;99.90;;;;;;5032636;28;20060;-77
2021/09/16 07:53:53;;;;;;;3.17;2.25;;;20.60;99.90;;;;;;5031846;28;20053;-79
2021/09/16 07:56:19;;;;;;;5.97;3.08;;;20.50;99.90;;;;;;5031586;28;20388;-77
2021/09/16 07:58:46;;;;;;;4.72;2.90;;;20.50;99.90;;;;;;5032842;28;20025;-77
2021/09/16 08:01:12;;;;;;;6.80;2.97;;;20.20;99.90;;;;;;5032411;28;20029;-75
2021/09/16 08:03:38;;;;;;;5.85;2.53;;;20.10;99.90;;;;;;5021750;28;20030;-76
2021/09/16 08:06:04;;;;;;;4.80;2.92;;;20.00;99.90;;;;;;5012069;28;20422;-75
2021/09/16 08:08:30;;;;;;;5.03;2.72;;;20.30;99.90;;;;;;5012759;28;20109;-76
2021/09/16 08:10:56;;;;;;;4.07;2.88;;;20.50;99.90;;;;;;5025543;28;20025;-76
2021/09/16 08:13:22;;;;;;;9.70;2.63;;;20.30;99.90;;;;;;5032101;28;20033;-76
2021/09/16 08:15:48;;;;;;;8.90;2.30;;;20.10;99.90;;;;;;5028850;28;20025;-77
2021/09/16 08:18:13;;;;;;;10.10;2.70;;;19.80;99.90;;;;;;5031444;28;20047;-77
2021/09/16 08:20:42;;;;;;;4.28;2.50;;;19.80;99.90;;;;;;5012517;28;20032;-77
2021/09/16 08:23:08;;;;;;;5.18;2.38;;;19.80;99.90;;;;;;5012249;28;20157;-77
2021/09/16 08:25:35;;;;;;;7.70;2.70;;;19.70;99.90;;;;;;5011701;28;20037;-77
2021/09/16 08:28:01;;;;;;;8.80;2.83;;;19.60;99.90;;;;;;5012756;28;20026;-76
2021/09/16 08:30:27;;;;;;;3.15;2.47;;;19.70;99.90;;;;;;5012509;28;20033;-76
2021/09/16 08:32:53;;;;;;;3.97;2.92;;;19.70;99.90;;;;;;5021213;28;20075;-77
2021/09/16 08:35:19;;;;;;;3.80;2.60;;;19.80;99.90;;;;;;5034447;28;20053;-77
2021/09/16 08:37:46;;;;;;;4.20;2.67;;;19.80;99.90;;;;;;5035911;28;20022;-76
2021/09/16 08:40:12;;;;;;;4.63;2.60;;;19.80;99.90;;;;;;5039765;28;20056;-77
2021/09/16 08:42:41;;;;;;;8.38;3.35;;;19.70;99.90;;;;;;5031910;28;20022;-77
2021/09/16 08:45:13;;;;;;;6.85;3.55;;;19.60;99.90;;;;;;5031011;28;20028;-77
2021/09/16 08:47:40;;;;;;;6.88;3.00;;;19.40;99.90;;;;;;5031631;28;20096;-77
2021/09/16 08:50:07;;;;;;;7.35;3.50;;;19.40;99.90;;;;;;5031793;28;20108;-77
2021/09/16 08:52:37;;;;;;;4.68;2.10;;;19.60;99.90;;;;;;5031344;28;20048;-77
2021/09/16 08:55:04;;;;;;;1.38;1.02;;;19.60;99.90;;;;;;5030820;28;20390;-78
2021/09/16 08:57:33;;;;;;;1.35;1.10;;;19.00;99.90;;;;;;5031985;28;20018;-80
2021/09/16 08:59:59;;;;;;;0.95;0.77;;;18.90;99.90;;;;;;5031909;28;20116;-77
2021/09/16 09:02:25;;;;;;;2.95;0.95;;;18.70;99.90;;;;;;5031293;28;20100;-77
2021/09/16 09:04:51;;;;;;;0.90;0.57;;;18.50;99.90;;;;;;5030276;28;20029;-77
2021/09/16 09:07:19;;;;;;;1.38;0.47;;;18.40;99.90;;;;;;5031064;28;20025;-78
2021/09/16 09:09:45;;;;;;;3.40;0.80;;;18.30;99.90;;;;;;5031305;28;20025;-77
2021/09/16 09:12:17;;;;;;;4.13;0.40;;;18.30;99.90;;;;;;5029131;28;20025;-77
2021/09/16 09:14:54;;;;;;;0.47;0.47;;;18.30;99.90;;;;;;5009508;28;20026;-77
2021/09/16 09:17:23;;;;;;;1.08;0.60;;;18.10;99.90;;;;;;5008287;28;20026;-79
2021/09/16 09:19:52;;;;;;;0.55;0.40;;;18.10;99.90;;;;;;5007457;28;20037;-78
2021/09/16 09:22:25;;;;;;;0.45;0.40;;;18.20;99.90;;;;;;5010232;28;20026;-78
2021/09/16 09:25:05;;;;;;;0.93;0.45;;;18.20;99.90;;;;;;5010043;28;20113;-77
2021/09/16 09:27:37;;;;;;;1.95;0.40;;;18.10;99.90;;;;;;5009958;28;20030;-77
2021/09/16 09:30:11;;;;;;;2.53;0.40;;;17.90;99.90;;;;;;5011465;28;20041;-77
2021/09/16 09:33:01;;;;;;;1.17;0.30;;;18.00;99.90;;;;;;5011319;28;20041;-77
2021/09/16 09:35:37;;;;;;;0.38;0.38;;;18.10;99.90;;;;;;5010451;28;20025;-77
2021/09/16 09:38:24;;;;;;;1.17;0.43;;;18.00;99.90;;;;;;5011468;28;20022;-77
2021/09/16 09:40:55;;;;;;;4.10;0.60;;;18.10;99.90;;;;;;5017189;28;20041;-77
2021/09/16 09:43:35;;;;;;;2.83;0.50;;;18.10;99.90;;;;;;5029322;28;20022;-77
2021/09/16 09:46:13;;;;;;;1.23;0.40;;;18.10;99.90;;;;;;5030595;28;20036;-77
2021/09/16 09:49:00;;;;;;;0.77;0.50;;;17.70;99.90;;;;;;5030836;28;20030;-77
2021/09/16 09:51:41;;;;;;;1.40;0.40;;;17.60;99.90;;;;;;5030995;28;20384;-78
2021/09/16 09:54:33;;;;;;;2.17;0.70;;;17.70;99.90;;;;;;5030898;28;20436;-77
2021/09/16 09:57:01;;;;;;;0.30;0.30;;;17.60;99.90;;;;;;5031101;28;20022;-77
2021/09/16 09:59:29;;;;;;;0.47;0.45;;;17.70;99.90;;;;;;5031069;28;20017;-78
2021/09/16 10:02:03;;;;;;;1.73;0.40;;;17.50;99.90;;;;;;5030642;28;20026;-77
2021/09/16 10:04:31;;;;;;;0.40;0.28;;;17.50;99.90;;;;;;5028855;28;20024;-77
2021/09/16 10:07:00;;;;;;;0.30;0.30;;;17.40;99.90;;;;;;5029848;28;20084;-77
2021/09/16 10:09:26;;;;;;;0.38;0.38;;;17.30;99.90;;;;;;5030356;28;20446;-78
2021/09/16 10:11:55;;;;;;;0.60;0.60;;;17.30;99.90;;;;;;5030960;28;20412;-77
2021/09/16 10:14:21;;;;;;;1.98;1.00;;;17.50;99.90;;;;;;5028615;28;20033;-77
2021/09/16 10:16:47;;;;;;;0.77;0.77;;;17.70;99.90;;;;;;5030314;28;20022;-78
2021/09/16 10:19:12;;;;;;;0.88;0.88;;;17.90;99.90;;;;;;5024479;28;20057;-78
2021/09/16 10:21:39;;;;;;;1.00;1.00;;;18.20;99.90;;;;;;5014650;28;20083;-78
2021/09/16 10:24:07;;;;;;;1.40;1.00;;;18.70;99.90;;;;;;5014667;28;20083;-77
2021/09/16 10:26:38;;;;;;;1.52;1.20;;;18.60;99.90;;;;;;5022598;28;20039;-77
2021/09/16 10:29:06;;;;;;;1.30;0.90;;;19.00;99.90;;;;;;5014243;28;20022;-77
2021/09/16 10:31:32;;;;;;;1.20;1.20;;;19.10;99.90;;;;;;5014672;28;20273;-77
2021/09/16 10:34:00;;;;;;;1.40;1.30;;;19.20;99.90;;;;;;5013850;28;20053;-77
2021/09/16 10:36:26;;;;;;;2.00;1.90;;;19.40;99.90;;;;;;5013649;28;20018;-77
2021/09/16 10:38:53;;;;;;;2.90;2.70;;;19.60;99.90;;;;;;5014215;28;20071;-76
2021/09/16 10:41:34;;;;;;;4.20;2.55;;;19.30;99.90;;;;;;5014178;28;20018;-77
2021/09/16 10:44:00;;;;;;;4.28;3.53;;;19.40;99.90;;;;;;5014101;28;20021;-77
2021/09/16 10:46:28;;;;;;;3.50;3.30;;;19.30;99.90;;;;;;5054810;22;20059;-80
2021/09/16 10:48:56;;;;;;;2.90;2.72;;;19.10;99.90;;;;;;5028632;28;20038;-80
2021/09/16 10:51:40;;;;;;;3.30;3.10;;;19.00;99.90;;;;;;5017670;28;20546;-80
2021/09/16 10:54:27;;;;;;;2.85;2.75;;;18.80;99.90;;;;;;5016608;28;20026;-80
2021/09/16 10:56:58;;;;;;;5.75;3.42;;;18.80;99.90;;;;;;5016979;28;20018;-81
2021/09/16 10:59:44;;;;;;;6.88;3.88;;;18.80;99.90;;;;;;5017648;28;20022;-82
2021/09/16 11:02:10;;;;;;;3.40;3.10;;;18.90;99.90;;;;;;5018037;28;20026;-81
2021/09/16 11:04:54;;;;;;;3.45;3.15;;;19.00;99.90;;;;;;5000539;28;20550;-80
2021/09/16 11:07:38;;;;;;;3.65;3.45;;;19.00;99.90;;;;;;5032775;28;20025;-79
2021/09/16 11:10:25;;;;;;;3.58;3.38;;;19.10;99.90;;;;;;5000346;28;20117;-77
2021/09/16 11:12:57;;;;;;;4.00;3.70;;;18.50;99.90;;;;;;4998285;28;20032;-79
2021/09/16 11:15:29;;;;;;;3.67;3.47;;;18.50;99.90;;;;;;5014685;28;20084;-78
2021/09/16 11:18:05;;;;;;;5.20;4.80;;;18.60;99.90;;;;;;5014961;28;20057;-79
2021/09/16 11:20:32;;;;;;;4.93;4.53;;;18.50;99.90;;;;;;5005776;28;20017;-79
2021/09/16 11:22:57;;;;;;;5.85;5.45;;;18.20;99.90;;;;;;5015746;28;20018;-80
2021/09/16 11:25:25;;;;;;;6.47;5.90;;;18.20;99.90;;;;;;5014329;28;20542;-78
2021/09/16 11:27:55;;;;;;;6.57;5.88;;;18.00;99.90;;;;;;4997139;28;20113;-79
2021/09/16 11:30:21;;;;;;;7.20;6.50;;;18.00;99.90;;;;;;5013589;28;20033;-80
2021/09/16 11:32:47;;;;;;;8.73;7.75;;;18.20;99.90;;;;;;5015161;28;20029;-80
2021/09/16 11:35:18;;;;;;;8.18;7.38;;;18.30;99.90;;;;;;5015912;28;20038;-79
2021/09/16 11:37:51;;;;;;;10.50;8.25;;;18.50;99.90;;;;;;5033296;28;20040;-80
2021/09/16 11:40:29;;;;;;;7.95;6.88;;;18.50;99.90;;;;;;5012269;28;20029;-80
2021/09/16 11:42:58;;;;;;;9.20;7.97;;;18.70;99.90;;;;;;5017698;28;20025;-79
2021/09/16 11:45:44;;;;;;;8.77;7.88;;;18.50;99.90;;;;;;5034790;28;20028;-79
2021/09/16 11:48:16;;;;;;;10.02;8.30;;;18.80;99.90;;;;;;5017943;28;20120;-79
2021/09/16 11:50:45;;;;;;;;;;;18.60;99.90;;;;;;5046005;28;20024;-72
2021/09/16 11:53:21;;;;;;;10.45;8.25;;;18.70;99.90;;;;;;5053092;28;19927;-73
2021/09/16 11:55:49;;;;;;;13.35;8.80;;;18.70;99.90;;;;;;5011704;28;20503;-81
2021/09/16 11:58:14;;;;;;;8.68;7.88;;;18.70;99.90;;;;;;5032196;28;20029;-81
2021/09/16 12:00:56;;;;;;;9.90;8.85;;;18.70;99.90;;;;;;5039650;28;20364;-81
2021/09/16 12:03:24;;;;;;;13.40;11.13;;;18.80;99.90;;;;;;5053029;28;20017;-73
2021/09/16 12:05:58;;;;;;;12.85;10.93;;;18.90;99.90;;;;;;5051901;28;20036;-70
2021/09/16 12:08:36;;;;;;;14.38;12.88;;;18.80;99.90;;;;;;5052097;28;20044;-72
2021/09/16 12:11:08;;;;;;;13.85;10.50;;;19.00;99.90;;;;;;5032671;28;20021;-71
2021/09/16 12:13:47;;;;;;;11.67;10.47;;;19.30;99.90;;;;;;5014339;28;20040;-72
2021/09/16 12:16:15;;;;;;;15.35;12.30;;;19.20;99.90;;;;;;5031264;28;20765;-72
2021/09/16 12:18:46;;;;;;;15.40;12.73;;;18.90;99.90;;;;;;5032316;28;20128;-72
2021/09/16 12:21:18;;;;;;;13.37;11.67;;;19.00;99.90;;;;;;5032575;28;20384;-72
2021/09/16 12:23:51;;;;;;;15.90;12.43;;;19.10;99.90;;;;;;5032313;28;20030;-72
2021/09/16 12:26:25;;;;;;;13.48;12.07;;;18.90;99.90;;;;;;5037429;28;20395;-72
2021/09/16 12:28:59;;;;;;;15.65;13.77;;;18.80;99.90;;;;;;5033322;28;20041;-72
2021/09/16 12:31:28;;;;;;;15.95;13.32;;;18.60;99.90;;;;;;5032278;28;20088;-72
2021/09/16 12:33:59;;;;;;;14.35;12.75;;;18.70;99.90;;;;;;5031846;28;20026;-73
2021/09/16 12:36:26;;;;;;;13.68;12.32;;;18.80;99.90;;;;;;5013481;28;20123;-72
2021/09/16 12:39:06;;;;;;;13.32;11.45;;;19.10;99.90;;;;;;5031919;28;20045;-72
2021/09/16 12:41:36;;;;;;;15.20;13.60;;;19.40;99.90;;;;;;5014200;28;20104;-72
2021/09/16 12:44:13;;;;;;;15.43;13.07;;;19.20;99.90;;;;;;5032375;28;20486;-72
2021/09/16 12:46:59;;;;;;;17.42;14.23;;;19.20;99.90;;;;;;5013643;28;20403;-72
2021/09/16 12:49:43;;;;;;;14.30;12.82;;;19.30;99.90;;;;;;5032625;28;20060;-74
2021/09/16 12:52:41;;;;;;;13.65;11.88;;;19.40;99.90;;;;;;5009711;28;20030;-79